sensor_id;sensor_type;location;lat;lon;timestamp;pressure;altitude;pressure_sealevel;temperature;humidity
14295;BME280;7231;59.370;18.016;2022-09-17T00:01:27;98874.28;;;10.51;100.00
14295;BME280;7231;59.370;18.016;2022-09-17T00:04:04;98843.78;;;10.37;100.00
14295;BME280;7231;59.370;18.016;2022-09-17T00:06:34;98868.16;;;10.52;100.00
14295;BME280;7231;59.370;18.016;2022-09-17T00:09:03;98885.63;;;10.57;100.00
14295;BME280;7231;59.370;18.016;2022-09-17T00:11:34;98872.53;;;10.45;100.00
14295;BME280;7231;59.370;18.016;2022-09-17T00:14:03;98880.38;;;10.51;100.00
14295;BME280;7231;59.370;18.016;2022-09-17T00:16:34;98889.09;;;10.59;100.00
14295;BME280;7231;59.370;18.016;2022-09-17T00:19:06;98888.25;;;10.56;100.00
14295;BME280;7231;59.370;18.016;2022-09-17T00:21:35;98878.63;;;10.53;100.00
14295;BME280;7231;59.370;18.016;2022-09-17T00:24:04;98897.84;;;10.58;100.00
14295;BME280;7231;59.370;18.016;2022-09-17T00:26:33;98889.09;;;10.58;100.00
14295;BME280;7231;59.370;18.016;2022-09-17T00:29:03;98889.09;;;10.58;100.00
14295;BME280;7231;59.370;18.016;2022-09-17T00:31:32;98888.22;;;10.57;100.00
14295;BME280;7231;59.370;18.016;2022-09-17T00:34:01;98889.97;;;10.58;100.00
14295;BME280;7231;59.370;18.016;2022-09-17T00:36:33;98894.34;;;10.59;100.00
14295;BME280;7231;59.370;18.016;2022-09-17T00:39:02;98893.47;;;10.60;100.00
14295;BME280;7231;59.370;18.016;2022-09-17T00:41:32;98889.09;;;10.62;100.00
14295;BME280;7231;59.370;18.016;2022-09-17T00:44:40;98879.50;;;10.58;100.00
14295;BME280;7231;59.370;18.016;2022-09-17T00:47:15;98901.31;;;10.68;100.00
14295;BME280;7231;59.370;18.016;2022-09-17T00:49:45;98889.09;;;10.64;100.00
14295;BME280;7231;59.370;18.016;2022-09-17T00:52:18;98899.53;;;10.73;100.00
14295;BME280;7231;59.370;18.016;2022-09-17T00:54:51;98892.56;;;10.69;100.00
14295;BME280;7231;59.370;18.016;2022-09-17T00:57:21;98882.09;;;10.67;100.00
14295;BME280;7231;59.370;18.016;2022-09-17T00:59:49;98894.28;;;10.74;100.00
14295;BME280;7231;59.370;18.016;2022-09-17T01:02:18;98903.91;;;10.72;100.00
14295;BME280;7231;59.370;18.016;2022-09-17T01:04:46;98906.53;;;10.72;100.00
14295;BME280;7231;59.370;18.016;2022-09-17T01:07:25;98907.41;;;10.70;100.00
14295;BME280;7231;59.370;18.016;2022-09-17T01:10:03;98896.94;;;10.62;100.00
14295;BME280;7231;59.370;18.016;2022-09-17T01:12:57;98896.97;;;10.58;100.00
14295;BME280;7231;59.370;18.016;2022-09-17T01:15:34;98899.59;;;10.56;100.00
14295;BME280;7231;59.370;18.016;2022-09-17T01:18:14;98905.69;;;10.66;100.00
14295;BME280;7231;59.370;18.016;2022-09-17T01:21:12;98903.06;;;10.66;100.00
14295;BME280;7231;59.370;18.016;2022-09-17T01:24:04;98907.44;;;10.65;100.00
14295;BME280;7231;59.370;18.016;2022-09-17T01:26:55;98896.97;;;10.59;100.00
14295;BME280;7231;59.370;18.016;2022-09-17T01:29:38;98906.56;;;10.65;100.00
14295;BME280;7231;59.370;18.016;2022-09-17T01:32:17;98900.44;;;10.66;100.00
14295;BME280;7231;59.370;18.016;2022-09-17T01:34:54;98903.94;;;10.66;100.00
14295;BME280;7231;59.370;18.016;2022-09-17T01:37:30;98905.66;;;10.69;100.00
14295;BME280;7231;59.370;18.016;2022-09-17T01:40:04;98888.22;;;10.63;100.00
14295;BME280;7231;59.370;18.016;2022-09-17T01:42:37;98906.53;;;10.69;100.00
14295;BME280;7231;59.370;18.016;2022-09-17T01:45:13;98890.84;;;10.60;100.00
14295;BME280;7231;59.370;18.016;2022-09-17T01:47:48;98898.69;;;10.68;100.00
14295;BME280;7231;59.370;18.016;2022-09-17T01:50:29;98906.53;;;10.69;100.00
14295;BME280;7231;59.370;18.016;2022-09-17T01:52:59;98870.78;;;10.52;100.00
14295;BME280;7231;59.370;18.016;2022-09-17T01:55:31;98898.66;;;10.71;100.00
14295;BME280;7231;59.370;18.016;2022-09-17T01:58:04;98876.00;;;10.58;100.00
14295;BME280;7231;59.370;18.016;2022-09-17T02:00:35;98898.66;;;10.74;100.00
14295;BME280;7231;59.370;18.016;2022-09-17T02:03:13;98898.66;;;10.76;100.00
14295;BME280;7231;59.370;18.016;2022-09-17T02:05:47;98866.41;;;10.54;100.00
14295;BME280;7231;59.370;18.016;2022-09-17T02:08:20;98905.63;;;10.77;100.00
14295;BME280;7231;59.370;18.016;2022-09-17T02:10:51;98856.81;;;10.45;100.00
14295;BME280;7231;59.370;18.016;2022-09-17T02:13:26;98899.53;;;10.78;100.00
14295;BME280;7231;59.370;18.016;2022-09-17T02:15:59;98896.03;;;10.79;100.00
14295;BME280;7231;59.370;18.016;2022-09-17T02:18:34;98896.88;;;10.79;100.00
14295;BME280;7231;59.370;18.016;2022-09-17T02:21:07;98897.75;;;10.80;100.00
14295;BME280;7231;59.370;18.016;2022-09-17T02:23:50;98882.91;;;10.79;100.00
14295;BME280;7231;59.370;18.016;2022-09-17T02:26:21;98888.13;;;10.83;100.00
14295;BME280;7231;59.370;18.016;2022-09-17T02:28:53;98892.53;;;10.80;100.00
14295;BME280;7231;59.370;18.016;2022-09-17T02:31:23;98890.75;;;10.83;100.00
14295;BME280;7231;59.370;18.016;2022-09-17T02:33:57;98894.25;;;10.84;100.00
14295;BME280;7231;59.370;18.016;2022-09-17T02:36:27;98838.47;;;10.47;100.00
14295;BME280;7231;59.370;18.016;2022-09-17T02:38:59;98897.75;;;10.80;100.00
14295;BME280;7231;59.370;18.016;2022-09-17T02:41:37;98898.59;;;10.86;100.00
14295;BME280;7231;59.370;18.016;2022-09-17T02:44:21;98904.72;;;10.84;100.00
14295;BME280;7231;59.370;18.016;2022-09-17T02:47:03;98902.16;;;10.76;100.00
14295;BME280;7231;59.370;18.016;2022-09-17T02:49:45;98899.53;;;10.71;100.00
14295;BME280;7231;59.370;18.016;2022-09-17T02:52:21;98906.50;;;10.76;100.00
14295;BME280;7231;59.370;18.016;2022-09-17T02:55:01;98910.03;;;10.71;100.00
14295;BME280;7231;59.370;18.016;2022-09-17T02:57:38;98903.91;;;10.69;100.00
14295;BME280;7231;59.370;18.016;2022-09-17T03:00:11;98903.94;;;10.66;100.00
14295;BME280;7231;59.370;18.016;2022-09-17T03:02:42;98910.03;;;10.64;100.00
14295;BME280;7231;59.370;18.016;2022-09-17T03:05:16;98871.69;;;10.43;100.00
14295;BME280;7231;59.370;18.016;2022-09-17T03:07:45;98910.06;;;10.62;100.00
14295;BME280;7231;59.370;18.016;2022-09-17T03:10:13;98910.94;;;10.60;100.00
14295;BME280;7231;59.370;18.016;2022-09-17T03:12:41;98909.19;;;10.57;100.00
14295;BME280;7231;59.370;18.016;2022-09-17T03:15:10;98912.69;;;10.55;100.00
14295;BME280;7231;59.370;18.016;2022-09-17T03:17:37;98914.44;;;10.54;100.00
14295;BME280;7231;59.370;18.016;2022-09-17T03:20:06;98910.97;;;10.52;100.00
14295;BME280;7231;59.370;18.016;2022-09-17T03:22:35;98916.19;;;10.52;100.00
14295;BME280;7231;59.370;18.016;2022-09-17T03:25:04;98908.34;;;10.51;100.00
14295;BME280;7231;59.370;18.016;2022-09-17T03:27:32;98903.97;;;10.47;100.00
14295;BME280;7231;59.370;18.016;2022-09-17T03:30:00;98907.47;;;10.47;100.00
14295;BME280;7231;59.370;18.016;2022-09-17T03:32:28;98904.88;;;10.43;100.00
14295;BME280;7231;59.370;18.016;2022-09-17T03:34:55;98894.44;;;10.32;100.00
14295;BME280;7231;59.370;18.016;2022-09-17T03:37:23;98917.13;;;10.39;100.00
14295;BME280;7231;59.370;18.016;2022-09-17T03:39:57;98908.41;;;10.34;100.00
14295;BME280;7231;59.370;18.016;2022-09-17T03:42:26;98917.16;;;10.31;100.00
14295;BME280;7231;59.370;18.016;2022-09-17T03:44:54;98919.78;;;10.30;100.00
14295;BME280;7231;59.370;18.016;2022-09-17T03:47:22;98903.16;;;10.19;100.00
14295;BME280;7231;59.370;18.016;2022-09-17T03:49:50;98914.53;;;10.24;100.00
14295;BME280;7231;59.370;18.016;2022-09-17T03:52:18;98907.53;;;10.14;100.00
14295;BME280;7231;59.370;18.016;2022-09-17T03:54:46;98923.28;;;10.24;100.00
14295;BME280;7231;59.370;18.016;2022-09-17T03:57:16;98919.78;;;10.24;100.00
14295;BME280;7231;59.370;18.016;2022-09-17T03:59:44;98926.75;;;10.25;100.00
14295;BME280;7231;59.370;18.016;2022-09-17T04:02:11;98930.25;;;10.27;100.00
14295;BME280;7231;59.370;18.016;2022-09-17T04:04:40;98891.84;;;10.03;100.00
14295;BME280;7231;59.370;18.016;2022-09-17T04:07:08;98894.44;;;10.06;100.00
14295;BME280;7231;59.370;18.016;2022-09-17T04:09:36;98943.34;;;10.39;100.00
14295;BME280;7231;59.370;18.016;2022-09-17T04:12:04;98904.94;;;10.20;100.00
14295;BME280;7231;59.370;18.016;2022-09-17T04:14:33;98940.66;;;10.45;100.00
14295;BME280;7231;59.370;18.016;2022-09-17T04:17:01;98942.41;;;10.48;100.00
14295;BME280;7231;59.370;18.016;2022-09-17T04:19:29;98935.41;;;10.48;100.00
14295;BME280;7231;59.370;18.016;2022-09-17T04:21:57;98910.16;;;10.29;100.00
14295;BME280;7231;59.370;18.016;2022-09-17T04:24:25;98931.09;;;10.38;100.00
14295;BME280;7231;59.370;18.016;2022-09-17T04:26:53;98944.16;;;10.47;100.00
14295;BME280;7231;59.370;18.016;2022-09-17T04:29:21;98942.41;;;10.48;100.00
14295;BME280;7231;59.370;18.016;2022-09-17T04:31:50;98941.53;;;10.46;100.00
14295;BME280;7231;59.370;18.016;2022-09-17T04:34:19;98951.16;;;10.45;100.00
14295;BME280;7231;59.370;18.016;2022-09-17T04:36:47;98918.03;;;10.24;100.00
14295;BME280;7231;59.370;18.016;2022-09-17T04:39:15;98949.38;;;10.49;100.00
14295;BME280;7231;59.370;18.016;2022-09-17T04:41:43;98954.63;;;10.50;100.00
14295;BME280;7231;59.370;18.016;2022-09-17T04:44:11;98953.75;;;10.51;100.00
14295;BME280;7231;59.370;18.016;2022-09-17T04:46:39;98944.16;;;10.53;100.00
14295;BME280;7231;59.370;18.016;2022-09-17T04:49:08;98943.28;;;10.48;100.00
14295;BME280;7231;59.370;18.016;2022-09-17T04:51:36;98964.22;;;10.57;100.00
14295;BME280;7231;59.370;18.016;2022-09-17T04:54:04;98956.34;;;10.59;100.00
14295;BME280;7231;59.370;18.016;2022-09-17T04:56:32;98962.47;;;10.62;100.00
14295;BME280;7231;59.370;18.016;2022-09-17T04:59:00;98954.59;;;10.61;100.00
14295;BME280;7231;59.370;18.016;2022-09-17T05:01:28;98953.72;;;10.62;100.00
14295;BME280;7231;59.370;18.016;2022-09-17T05:03:56;98950.22;;;10.64;100.00
14295;BME280;7231;59.370;18.016;2022-09-17T05:06:25;98943.25;;;10.63;100.00
14295;BME280;7231;59.370;18.016;2022-09-17T05:08:53;98966.84;;;10.63;100.00
14295;BME280;7231;59.370;18.016;2022-09-17T05:11:22;98948.50;;;10.60;100.00
14295;BME280;7231;59.370;18.016;2022-09-17T05:13:50;98945.00;;;10.55;100.00
14295;BME280;7231;59.370;18.016;2022-09-17T05:16:17;98949.38;;;10.52;100.00
14295;BME280;7231;59.370;18.016;2022-09-17T05:18:46;98958.13;;;10.46;100.00
14295;BME280;7231;59.370;18.016;2022-09-17T05:21:15;98931.13;;;10.30;100.00
14295;BME280;7231;59.370;18.016;2022-09-17T05:23:44;98947.69;;;10.40;100.00
14295;BME280;7231;59.370;18.016;2022-09-17T05:26:12;98907.53;;;10.12;100.00
14295;BME280;7231;59.370;18.016;2022-09-17T05:28:41;98945.09;;;10.34;100.00
14295;BME280;7231;59.370;18.016;2022-09-17T05:31:09;98956.44;;;10.33;100.00
14295;BME280;7231;59.370;18.016;2022-09-17T05:33:37;98951.19;;;10.33;100.00
14295;BME280;7231;59.370;18.016;2022-09-17T05:36:05;98933.75;;;10.20;100.00
14295;BME280;7231;59.370;18.016;2022-09-17T05:38:33;98943.34;;;10.22;100.00
14295;BME280;7231;59.370;18.016;2022-09-17T05:41:04;98963.41;;;10.40;100.00
14295;BME280;7231;59.370;18.016;2022-09-17T05:43:32;98964.25;;;10.45;100.00
14295;BME280;7231;59.370;18.016;2022-09-17T05:46:01;98960.75;;;10.49;100.00
14295;BME280;7231;59.370;18.016;2022-09-17T05:48:29;98959.00;;;10.50;100.00
14295;BME280;7231;59.370;18.016;2022-09-17T05:50:57;98966.84;;;10.53;100.00
14295;BME280;7231;59.370;18.016;2022-09-17T05:53:25;98948.53;;;10.47;100.00
14295;BME280;7231;59.370;18.016;2022-09-17T05:55:55;98943.28;;;10.51;100.00
14295;BME280;7231;59.370;18.016;2022-09-17T05:58:25;98971.19;;;10.67;100.00
14295;BME280;7231;59.370;18.016;2022-09-17T06:00:55;98971.19;;;10.70;100.00
14295;BME280;7231;59.370;18.016;2022-09-17T06:03:26;98966.81;;;10.72;99.60
14295;BME280;7231;59.370;18.016;2022-09-17T06:05:56;98970.31;;;10.71;100.00
14295;BME280;7231;59.370;18.016;2022-09-17T06:08:26;98975.56;;;10.71;99.88
14295;BME280;7231;59.370;18.016;2022-09-17T06:10:54;98971.19;;;10.75;99.91
14295;BME280;7231;59.370;18.016;2022-09-17T06:13:29;98964.16;;;10.79;100.00
14295;BME280;7231;59.370;18.016;2022-09-17T06:15:57;98983.34;;;10.94;100.00
14295;BME280;7231;59.370;18.016;2022-09-17T06:18:26;98981.56;;;11.04;100.00
14295;BME280;7231;59.370;18.016;2022-09-17T06:20:55;98973.69;;;11.10;99.57
14295;BME280;7231;59.370;18.016;2022-09-17T06:23:24;98989.34;;;11.25;99.20
14295;BME280;7231;59.370;18.016;2022-09-17T06:25:53;98943.97;;;11.06;99.03
14295;BME280;7231;59.370;18.016;2022-09-17T06:28:22;98966.59;;;11.27;98.94
14295;BME280;7231;59.370;18.016;2022-09-17T06:30:52;98993.56;;;11.60;98.36
14295;BME280;7231;59.370;18.016;2022-09-17T06:33:22;98985.63;;;11.67;97.96
14295;BME280;7231;59.370;18.016;2022-09-17T06:35:55;98992.59;;;11.73;97.36
14295;BME280;7231;59.370;18.016;2022-09-17T06:38:25;98989.97;;;11.79;97.10
14295;BME280;7231;59.370;18.016;2022-09-17T06:40:53;98935.75;;;11.69;97.77
14295;BME280;7231;59.370;18.016;2022-09-17T06:43:22;98983.59;;;12.14;97.09
14295;BME280;7231;59.370;18.016;2022-09-17T06:45:56;98986.13;;;12.26;96.45
14295;BME280;7231;59.370;18.016;2022-09-17T06:48:25;98990.47;;;12.30;95.07
14295;BME280;7231;59.370;18.016;2022-09-17T06:50:54;98984.28;;;12.34;95.04
14295;BME280;7231;59.370;18.016;2022-09-17T06:53:23;98974.72;;;12.28;94.52
14295;BME280;7231;59.370;18.016;2022-09-17T06:55:51;98987.69;;;12.45;93.91
14295;BME280;7231;59.370;18.016;2022-09-17T06:58:19;98998.16;;;12.50;93.50
14295;BME280;7231;59.370;18.016;2022-09-17T07:00:46;99000.75;;;12.54;93.59
14295;BME280;7231;59.370;18.016;2022-09-17T07:03:16;98993.50;;;12.79;94.36
14295;BME280;7231;59.370;18.016;2022-09-17T07:05:48;99006.25;;;13.13;94.82
14295;BME280;7231;59.370;18.016;2022-09-17T07:08:16;99005.19;;;13.30;93.08
14295;BME280;7231;59.370;18.016;2022-09-17T07:10:44;98973.66;;;13.26;91.82
14295;BME280;7231;59.370;18.016;2022-09-17T07:13:12;98984.81;;;13.45;91.28
14295;BME280;7231;59.370;18.016;2022-09-17T07:15:40;98994.28;;;13.59;91.26
14295;BME280;7231;59.370;18.016;2022-09-17T07:18:09;98989.53;;;13.84;91.20
14295;BME280;7231;59.370;18.016;2022-09-17T07:20:38;98951.78;;;13.85;90.56
14295;BME280;7231;59.370;18.016;2022-09-17T07:23:06;98984.53;;;14.23;89.51
14295;BME280;7231;59.370;18.016;2022-09-17T07:25:34;98981.53;;;14.47;90.02
14295;BME280;7231;59.370;18.016;2022-09-17T07:28:02;99002.28;;;15.13;89.84
14295;BME280;7231;59.370;18.016;2022-09-17T07:30:30;98991.53;;;15.64;87.93
14295;BME280;7231;59.370;18.016;2022-09-17T07:33:00;98941.41;;;15.61;85.15
14295;BME280;7231;59.370;18.016;2022-09-17T07:35:28;98961.09;;;15.86;83.13
14295;BME280;7231;59.370;18.016;2022-09-17T07:37:57;98986.94;;;16.11;81.55
14295;BME280;7231;59.370;18.016;2022-09-17T07:40:25;98988.81;;;16.06;79.82
14295;BME280;7231;59.370;18.016;2022-09-17T07:42:55;99008.66;;;15.86;78.71
14295;BME280;7231;59.370;18.016;2022-09-17T07:45:24;99008.31;;;15.62;78.45
14295;BME280;7231;59.370;18.016;2022-09-17T07:47:52;98968.03;;;15.10;78.44
14295;BME280;7231;59.370;18.016;2022-09-17T07:50:20;99024.09;;;15.23;78.46
14295;BME280;7231;59.370;18.016;2022-09-17T07:52:48;99016.50;;;15.06;78.41
14295;BME280;7231;59.370;18.016;2022-09-17T07:55:17;99022.09;;;14.89;79.09
14295;BME280;7231;59.370;18.016;2022-09-17T07:57:50;99025.72;;;14.84;79.54
14295;BME280;7231;59.370;18.016;2022-09-17T08:00:18;99033.72;;;14.79;79.82
14295;BME280;7231;59.370;18.016;2022-09-17T08:02:52;98999.00;;;14.54;80.14
14295;BME280;7231;59.370;18.016;2022-09-17T08:05:20;99037.31;;;14.75;80.83
14295;BME280;7231;59.370;18.016;2022-09-17T08:07:48;99003.28;;;14.60;80.62
14295;BME280;7231;59.370;18.016;2022-09-17T08:10:18;99026.66;;;14.80;80.18
14295;BME280;7231;59.370;18.016;2022-09-17T08:12:47;99031.16;;;14.75;80.04
14295;BME280;7231;59.370;18.016;2022-09-17T08:15:16;99034.63;;;14.78;79.97
14295;BME280;7231;59.370;18.016;2022-09-17T08:17:45;99036.59;;;14.66;79.72
14295;BME280;7231;59.370;18.016;2022-09-17T08:20:14;99041.00;;;14.65;80.68
14295;BME280;7231;59.370;18.016;2022-09-17T08:22:42;99036.31;;;14.81;80.71
14295;BME280;7231;59.370;18.016;2022-09-17T08:25:15;98918.78;;;14.15;80.46
14295;BME280;7231;59.370;18.016;2022-09-17T08:27:45;99054.34;;;15.05;80.30
14295;BME280;7231;59.370;18.016;2022-09-17T08:30:13;99049.03;;;15.07;80.06
14295;BME280;7231;59.370;18.016;2022-09-17T08:32:41;99047.88;;;15.21;79.98
14295;BME280;7231;59.370;18.016;2022-09-17T08:35:09;99061.66;;;15.37;79.41
14295;BME280;7231;59.370;18.016;2022-09-17T08:37:38;99062.41;;;15.44;78.98
14295;BME280;7231;59.370;18.016;2022-09-17T08:40:08;99058.78;;;15.49;78.18
14295;BME280;7231;59.370;18.016;2022-09-17T08:42:48;99043.06;;;15.42;77.94
14295;BME280;7231;59.370;18.016;2022-09-17T08:45:21;99062.72;;;15.72;79.25
14295;BME280;7231;59.370;18.016;2022-09-17T08:47:49;99061.28;;;15.97;78.08
14295;BME280;7231;59.370;18.016;2022-09-17T08:50:25;99045.03;;;15.75;75.63
14295;BME280;7231;59.370;18.016;2022-09-17T08:53:14;99073.28;;;15.72;75.25
14295;BME280;7231;59.370;18.016;2022-09-17T08:55:50;99064.28;;;15.39;75.54
14295;BME280;7231;59.370;18.016;2022-09-17T08:58:39;99074.94;;;15.33;76.11
14295;BME280;7231;59.370;18.016;2022-09-17T09:01:26;99076.84;;;15.26;76.24
14295;BME280;7231;59.370;18.016;2022-09-17T09:04:15;99076.16;;;15.15;76.37
14295;BME280;7231;59.370;18.016;2022-09-17T09:06:49;99071.84;;;15.11;76.76
14295;BME280;7231;59.370;18.016;2022-09-17T09:09:20;99080.59;;;15.14;76.86
14295;BME280;7231;59.370;18.016;2022-09-17T09:11:54;99085.00;;;15.14;76.89
14295;BME280;7231;59.370;18.016;2022-09-17T09:14:29;99084.91;;;15.18;77.24
14295;BME280;7231;59.370;18.016;2022-09-17T09:17:04;99085.25;;;15.46;78.62
14295;BME280;7231;59.370;18.016;2022-09-17T09:19:41;99077.78;;;16.08;77.99
14295;BME280;7231;59.370;18.016;2022-09-17T09:22:18;99083.53;;;16.63;76.37
14295;BME280;7231;59.370;18.016;2022-09-17T09:25:02;99078.53;;;16.87;74.06
14295;BME280;7231;59.370;18.016;2022-09-17T09:27:37;99089.41;;;16.77;72.78
14295;BME280;7231;59.370;18.016;2022-09-17T09:30:10;99088.78;;;16.66;72.64
14295;BME280;7231;59.370;18.016;2022-09-17T09:32:52;99090.59;;;16.62;71.48
14295;BME280;7231;59.370;18.016;2022-09-17T09:35:24;99086.16;;;16.66;71.34
14295;BME280;7231;59.370;18.016;2022-09-17T09:37:56;99091.66;;;16.55;70.48
14295;BME280;7231;59.370;18.016;2022-09-17T09:40:32;99101.78;;;16.38;70.47
14295;BME280;7231;59.370;18.016;2022-09-17T09:43:10;99108.25;;;16.24;70.63
14295;BME280;7231;59.370;18.016;2022-09-17T09:45:59;99094.41;;;16.13;70.93
14295;BME280;7231;59.370;18.016;2022-09-17T09:48:37;99088.63;;;15.96;71.07
14295;BME280;7231;59.370;18.016;2022-09-17T09:51:23;99099.53;;;15.79;71.46
14295;BME280;7231;59.370;18.016;2022-09-17T09:54:06;99120.03;;;15.68;71.89
14295;BME280;7231;59.370;18.016;2022-09-17T09:56:46;99100.28;;;15.43;72.25
14295;BME280;7231;59.370;18.016;2022-09-17T09:59:18;99124.09;;;15.40;72.50
14295;BME280;7231;59.370;18.016;2022-09-17T10:01:46;99122.59;;;15.26;72.27
14295;BME280;7231;59.370;18.016;2022-09-17T10:04:18;99128.13;;;15.13;72.65
14295;BME280;7231;59.370;18.016;2022-09-17T10:06:48;99123.75;;;15.12;73.34
14295;BME280;7231;59.370;18.016;2022-09-17T10:09:18;99115.84;;;15.10;73.38
14295;BME280;7231;59.370;18.016;2022-09-17T10:12:14;99134.94;;;15.24;73.05
14295;BME280;7231;59.370;18.016;2022-09-17T10:14:44;99115.00;;;15.08;73.36
14295;BME280;7231;59.370;18.016;2022-09-17T10:17:16;99131.56;;;15.18;73.52
14295;BME280;7231;59.370;18.016;2022-09-17T10:19:57;99135.94;;;15.19;73.19
14295;BME280;7231;59.370;18.016;2022-09-17T10:22:38;99134.09;;;15.22;73.48
14295;BME280;7231;59.370;18.016;2022-09-17T10:25:26;99145.19;;;15.43;73.27
14295;BME280;7231;59.370;18.016;2022-09-17T10:27:57;99143.53;;;15.82;74.34
14295;BME280;7231;59.370;18.016;2022-09-17T10:30:26;99117.19;;;16.19;74.04
14295;BME280;7231;59.370;18.016;2022-09-17T10:33:14;99136.03;;;17.16;73.28
14295;BME280;7231;59.370;18.016;2022-09-17T10:35:56;99139.84;;;17.73;69.46
14295;BME280;7231;59.370;18.016;2022-09-17T10:38:30;99122.53;;;17.91;68.84
14295;BME280;7231;59.370;18.016;2022-09-17T10:41:17;99136.66;;;17.91;66.11
14295;BME280;7231;59.370;18.016;2022-09-17T10:43:47;99146.25;;;17.64;67.16
14295;BME280;7231;59.370;18.016;2022-09-17T10:46:18;99152.28;;;17.37;67.92
14295;BME280;7231;59.370;18.016;2022-09-17T10:48:57;99161.09;;;17.03;69.13
14295;BME280;7231;59.370;18.016;2022-09-17T10:51:33;99157.47;;;16.70;70.16
14295;BME280;7231;59.370;18.016;2022-09-17T10:54:25;99155.47;;;16.41;72.65
14295;BME280;7231;59.370;18.016;2022-09-17T10:56:58;99135.06;;;16.08;73.03
14295;BME280;7231;59.370;18.016;2022-09-17T10:59:46;99166.41;;;16.26;74.22
14295;BME280;7231;59.370;18.016;2022-09-17T11:02:30;99164.13;;;16.49;74.68
14295;BME280;7231;59.370;18.016;2022-09-17T11:05:15;99168.69;;;16.81;74.32
14295;BME280;7231;59.370;18.016;2022-09-17T11:07:56;99157.69;;;16.98;73.88
14295;BME280;7231;59.370;18.016;2022-09-17T11:10:30;99169.81;;;17.07;72.80
14295;BME280;7231;59.370;18.016;2022-09-17T11:13:12;99112.16;;;16.84;71.21
14295;BME280;7231;59.370;18.016;2022-09-17T11:16:01;99182.69;;;17.22;69.75
14295;BME280;7231;59.370;18.016;2022-09-17T11:18:40;99176.75;;;17.12;68.99
14295;BME280;7231;59.370;18.016;2022-09-17T11:21:27;99153.06;;;16.71;69.25
14295;BME280;7231;59.370;18.016;2022-09-17T11:26:56;99173.13;;;16.41;69.90
14295;BME280;7231;59.370;18.016;2022-09-17T11:29:47;99194.59;;;16.27;69.58
14295;BME280;7231;59.370;18.016;2022-09-17T11:32:32;99195.84;;;16.09;70.25
14295;BME280;7231;59.370;18.016;2022-09-17T11:35:07;99192.41;;;16.04;70.86
14295;BME280;7231;59.370;18.016;2022-09-17T11:37:40;99191.47;;;16.07;70.91
14295;BME280;7231;59.370;18.016;2022-09-17T11:40:20;99197.56;;;16.10;70.19
14295;BME280;7231;59.370;18.016;2022-09-17T11:42:53;99191.22;;;16.19;69.99
14295;BME280;7231;59.370;18.016;2022-09-17T11:45:25;99172.66;;;16.22;69.83
14295;BME280;7231;59.370;18.016;2022-09-17T11:47:58;99198.25;;;16.60;69.68
14295;BME280;7231;59.370;18.016;2022-09-17T11:50:31;99199.41;;;16.88;69.11
14295;BME280;7231;59.370;18.016;2022-09-17T11:53:06;99188.97;;;17.18;68.40
14295;BME280;7231;59.370;18.016;2022-09-17T11:55:41;99200.63;;;17.45;67.10
14295;BME280;7231;59.370;18.016;2022-09-17T11:58:20;99149.88;;;17.28;65.99
14295;BME280;7231;59.370;18.016;2022-09-17T12:00:56;99199.25;;;17.64;65.40
14295;BME280;7231;59.370;18.016;2022-09-17T12:03:30;99197.63;;;17.59;64.67
14295;BME280;7231;59.370;18.016;2022-09-17T12:06:02;99197.63;;;17.59;64.41
14295;BME280;7231;59.370;18.016;2022-09-17T12:08:38;99199.38;;;17.60;64.38
14295;BME280;7231;59.370;18.016;2022-09-17T12:11:14;99199.06;;;17.72;64.40
14295;BME280;7231;59.370;18.016;2022-09-17T12:13:46;99195.66;;;18.58;63.64
14295;BME280;7231;59.370;18.016;2022-09-17T12:16:20;99196.03;;;19.81;60.45
14295;BME280;7231;59.370;18.016;2022-09-17T12:18:56;99184.91;;;20.87;58.41
14295;BME280;7231;59.370;18.016;2022-09-17T12:21:29;99193.16;;;21.66;55.89
14295;BME280;7231;59.370;18.016;2022-09-17T12:24:03;99186.94;;;22.07;53.91
14295;BME280;7231;59.370;18.016;2022-09-17T12:26:52;99174.53;;;21.65;52.44
14295;BME280;7231;59.370;18.016;2022-09-17T12:29:43;99189.56;;;21.03;52.46
14295;BME280;7231;59.370;18.016;2022-09-17T12:32:28;99196.31;;;20.22;53.73
14295;BME280;7231;59.370;18.016;2022-09-17T12:35:06;99206.19;;;19.43;54.80
14295;BME280;7231;59.370;18.016;2022-09-17T12:37:46;99203.84;;;18.50;56.86
14295;BME280;7231;59.370;18.016;2022-09-17T12:40:20;99172.19;;;17.51;59.02
14295;BME280;7231;59.370;18.016;2022-09-17T12:43:11;99209.47;;;17.10;61.49
14295;BME280;7231;59.370;18.016;2022-09-17T12:45:55;99209.47;;;16.73;62.80
14295;BME280;7231;59.370;18.016;2022-09-17T12:48:42;99220.63;;;16.45;64.32
14295;BME280;7231;59.370;18.016;2022-09-17T12:51:25;99223.56;;;16.32;65.49
14295;BME280;7231;59.370;18.016;2022-09-17T12:54:05;99234.63;;;16.09;66.36
14295;BME280;7231;59.370;18.016;2022-09-17T12:56:49;99114.00;;;15.15;67.96
14295;BME280;7231;59.370;18.016;2022-09-17T12:59:28;99243.28;;;15.71;68.92
14295;BME280;7231;59.370;18.016;2022-09-17T13:02:00;99244.34;;;15.61;69.94
14295;BME280;7231;59.370;18.016;2022-09-17T13:04:58;99248.06;;;15.49;71.79
14295;BME280;7231;59.370;18.016;2022-09-17T13:07:46;99259.59;;;15.45;72.72
14295;BME280;7231;59.370;18.016;2022-09-17T13:10:39;99254.38;;;15.42;73.83
14295;BME280;7231;59.370;18.016;2022-09-17T13:13:18;99259.59;;;15.45;74.48
14295;BME280;7231;59.370;18.016;2022-09-17T13:15:58;99255.00;;;15.57;74.99
14295;BME280;7231;59.370;18.016;2022-09-17T13:18:33;99253.63;;;15.83;75.37
14295;BME280;7231;59.370;18.016;2022-09-17T13:21:09;99229.34;;;16.09;75.35
14295;BME280;7231;59.370;18.016;2022-09-17T13:23:41;99241.22;;;16.73;74.73
14295;BME280;7231;59.370;18.016;2022-09-17T13:26:12;99253.38;;;17.56;72.85
14295;BME280;7231;59.370;18.016;2022-09-17T13:28:44;99251.50;;;18.24;70.89
14295;BME280;7231;59.370;18.016;2022-09-17T13:31:47;99250.63;;;18.24;68.89